sensor_id;sensor_type;location;lat;lon;timestamp;P1;P2;P0
49644;PMS5003;36494;50.730;-1.932;2023-09-19T00:01:27;3;3;
49644;PMS5003;36494;50.730;-1.932;2023-09-19T00:03:53;3;3;
49644;PMS5003;36494;50.730;-1.932;2023-09-19T00:06:18;3;3;
49644;PMS5003;36494;50.730;-1.932;2023-09-19T00:08:44;6;6;
49644;PMS5003;36494;50.730;-1.932;2023-09-19T00:11:10;5;5;
49644;PMS5003;36494;50.730;-1.932;2023-09-19T00:13:35;2;2;
49644;PMS5003;36494;50.730;-1.932;2023-09-19T00:16:00;5;3;
49644;PMS5003;36494;50.730;-1.932;2023-09-19T00:18:26;3;2;
49644;PMS5003;36494;50.730;-1.932;2023-09-19T00:20:52;7;7;
49644;PMS5003;36494;50.730;-1.932;2023-09-19T00:23:17;2;2;
49644;PMS5003;36494;50.730;-1.932;2023-09-19T00:25:42;8;6;
49644;PMS5003;36494;50.730;-1.932;2023-09-19T00:28:08;4;4;
49644;PMS5003;36494;50.730;-1.932;2023-09-19T00:30:33;5;4;
49644;PMS5003;36494;50.730;-1.932;2023-09-19T00:32:59;3;3;
49644;PMS5003;36494;50.730;-1.932;2023-09-19T00:35:24;5;4;
49644;PMS5003;36494;50.730;-1.932;2023-09-19T00:37:51;5;4;
49644;PMS5003;36494;50.730;-1.932;2023-09-19T00:40:16;3;3;
49644;PMS5003;36494;50.730;-1.932;2023-09-19T00:42:41;5;5;
49644;PMS5003;36494;50.730;-1.932;2023-09-19T00:45:06;3;2;
49644;PMS5003;36494;50.730;-1.932;2023-09-19T00:47:32;2;1;
49644;PMS5003;36494;50.730;-1.932;2023-09-19T00:49:57;2;1;
49644;PMS5003;36494;50.730;-1.932;2023-09-19T00:52:22;4;3;
49644;PMS5003;36494;50.730;-1.932;2023-09-19T00:54:48;6;5;
49644;PMS5003;36494;50.730;-1.932;2023-09-19T00:57:14;9;9;
49644;PMS5003;36494;50.730;-1.932;2023-09-19T00:59:39;4;3;
49644;PMS5003;36494;50.730;-1.932;2023-09-19T01:02:04;4;4;
49644;PMS5003;36494;50.730;-1.932;2023-09-19T01:04:29;3;3;
49644;PMS5003;36494;50.730;-1.932;2023-09-19T01:06:54;5;4;
49644;PMS5003;36494;50.730;-1.932;2023-09-19T01:09:20;3;2;
49644;PMS5003;36494;50.730;-1.932;2023-09-19T01:11:46;3;2;
49644;PMS5003;36494;50.730;-1.932;2023-09-19T01:14:14;4;3;
49644;PMS5003;36494;50.730;-1.932;2023-09-19T01:16:37;5;4;
49644;PMS5003;36494;50.730;-1.932;2023-09-19T01:19:05;4;3;
49644;PMS5003;36494;50.730;-1.932;2023-09-19T01:21:28;2;2;
49644;PMS5003;36494;50.730;-1.932;2023-09-19T01:24:05;1;1;
49644;PMS5003;36494;50.730;-1.932;2023-09-19T01:26:20;2;2;
49644;PMS5003;36494;50.730;-1.932;2023-09-19T01:28:49;4;3;
49644;PMS5003;36494;50.730;-1.932;2023-09-19T01:31:10;2;2;
49644;PMS5003;36494;50.730;-1.932;2023-09-19T01:36:01;0;0;
49644;PMS5003;36494;50.730;-1.932;2023-09-19T01:38:26;4;3;
49644;PMS5003;36494;50.730;-1.932;2023-09-19T01:40:55;4;3;
49644;PMS5003;36494;50.730;-1.932;2023-09-19T01:43:19;3;2;
49644;PMS5003;36494;50.730;-1.932;2023-09-19T01:45:45;2;2;
49644;PMS5003;36494;50.730;-1.932;2023-09-19T01:48:12;0;0;
49644;PMS5003;36494;50.730;-1.932;2023-09-19T01:50:36;1;1;
49644;PMS5003;36494;50.730;-1.932;2023-09-19T01:53:02;3;3;
49644;PMS5003;36494;50.730;-1.932;2023-09-19T01:55:25;1;1;
49644;PMS5003;36494;50.730;-1.932;2023-09-19T01:57:52;1;0;
49644;PMS5003;36494;50.730;-1.932;2023-09-19T02:00:15;1;1;
49644;PMS5003;36494;50.730;-1.932;2023-09-19T02:02:42;2;1;
49644;PMS5003;36494;50.730;-1.932;2023-09-19T02:05:06;2;1;
49644;PMS5003;36494;50.730;-1.932;2023-09-19T02:07:31;2;2;
49644;PMS5003;36494;50.730;-1.932;2023-09-19T02:09:56;1;0;
49644;PMS5003;36494;50.730;-1.932;2023-09-19T02:12:22;0;0;
49644;PMS5003;36494;50.730;-1.932;2023-09-19T02:14:47;3;3;
49644;PMS5003;36494;50.730;-1.932;2023-09-19T02:17:12;1;1;
49644;PMS5003;36494;50.730;-1.932;2023-09-19T02:19:38;0;0;
49644;PMS5003;36494;50.730;-1.932;2023-09-19T02:22:03;0;0;
49644;PMS5003;36494;50.730;-1.932;2023-09-19T02:24:29;1;1;
49644;PMS5003;36494;50.730;-1.932;2023-09-19T02:26:54;2;0;
49644;PMS5003;36494;50.730;-1.932;2023-09-19T02:29:20;3;2;
49644;PMS5003;36494;50.730;-1.932;2023-09-19T02:31:45;2;1;
49644;PMS5003;36494;50.730;-1.932;2023-09-19T02:34:10;1;1;
49644;PMS5003;36494;50.730;-1.932;2023-09-19T02:36:36;1;0;
49644;PMS5003;36494;50.730;-1.932;2023-09-19T02:39:01;2;2;
49644;PMS5003;36494;50.730;-1.932;2023-09-19T02:41:26;3;2;
49644;PMS5003;36494;50.730;-1.932;2023-09-19T02:43:52;1;1;
49644;PMS5003;36494;50.730;-1.932;2023-09-19T02:46:17;3;3;
49644;PMS5003;36494;50.730;-1.932;2023-09-19T02:48:42;2;2;
49644;PMS5003;36494;50.730;-1.932;2023-09-19T02:51:07;2;2;
49644;PMS5003;36494;50.730;-1.932;2023-09-19T02:53:33;3;2;
49644;PMS5003;36494;50.730;-1.932;2023-09-19T02:55:58;6;6;
49644;PMS5003;36494;50.730;-1.932;2023-09-19T02:58:24;3;3;
49644;PMS5003;36494;50.730;-1.932;2023-09-19T03:00:49;2;1;
49644;PMS5003;36494;50.730;-1.932;2023-09-19T03:03:14;2;2;
49644;PMS5003;36494;50.730;-1.932;2023-09-19T03:05:40;0;0;
49644;PMS5003;36494;50.730;-1.932;2023-09-19T03:08:06;2;2;
49644;PMS5003;36494;50.730;-1.932;2023-09-19T03:10:31;2;2;
49644;PMS5003;36494;50.730;-1.932;2023-09-19T03:12:57;3;3;
49644;PMS5003;36494;50.730;-1.932;2023-09-19T03:15:22;2;2;
49644;PMS5003;36494;50.730;-1.932;2023-09-19T03:17:47;2;2;
49644;PMS5003;36494;50.730;-1.932;2023-09-19T03:20:13;0;0;
49644;PMS5003;36494;50.730;-1.932;2023-09-19T03:22:39;3;3;
49644;PMS5003;36494;50.730;-1.932;2023-09-19T03:25:04;0;0;
49644;PMS5003;36494;50.730;-1.932;2023-09-19T03:27:30;2;2;
49644;PMS5003;36494;50.730;-1.932;2023-09-19T03:29:56;3;2;
49644;PMS5003;36494;50.730;-1.932;2023-09-19T03:32:21;3;2;
49644;PMS5003;36494;50.730;-1.932;2023-09-19T03:34:46;2;1;
49644;PMS5003;36494;50.730;-1.932;2023-09-19T03:37:12;1;0;
49644;PMS5003;36494;50.730;-1.932;2023-09-19T03:39:37;0;0;
49644;PMS5003;36494;50.730;-1.932;2023-09-19T03:42:03;1;1;
49644;PMS5003;36494;50.730;-1.932;2023-09-19T03:44:28;3;2;
49644;PMS5003;36494;50.730;-1.932;2023-09-19T03:46:53;1;1;
49644;PMS5003;36494;50.730;-1.932;2023-09-19T03:49:19;1;1;
49644;PMS5003;36494;50.730;-1.932;2023-09-19T03:51:44;1;1;
49644;PMS5003;36494;50.730;-1.932;2023-09-19T03:54:09;2;1;
49644;PMS5003;36494;50.730;-1.932;2023-09-19T03:56:35;2;2;
49644;PMS5003;36494;50.730;-1.932;2023-09-19T03:59:01;2;1;
49644;PMS5003;36494;50.730;-1.932;2023-09-19T04:01:26;2;2;
49644;PMS5003;36494;50.730;-1.932;2023-09-19T04:03:51;2;1;
49644;PMS5003;36494;50.730;-1.932;2023-09-19T04:06:17;1;1;
49644;PMS5003;36494;50.730;-1.932;2023-09-19T04:08:42;3;2;
49644;PMS5003;36494;50.730;-1.932;2023-09-19T04:11:07;2;1;
49644;PMS5003;36494;50.730;-1.932;2023-09-19T04:13:33;3;3;
49644;PMS5003;36494;50.730;-1.932;2023-09-19T04:15:59;4;4;
49644;PMS5003;36494;50.730;-1.932;2023-09-19T04:18:24;2;2;
49644;PMS5003;36494;50.730;-1.932;2023-09-19T04:20:49;2;2;
49644;PMS5003;36494;50.730;-1.932;2023-09-19T04:23:14;2;2;
49644;PMS5003;36494;50.730;-1.932;2023-09-19T04:25:40;2;2;
49644;PMS5003;36494;50.730;-1.932;2023-09-19T04:28:05;1;1;
49644;PMS5003;36494;50.730;-1.932;2023-09-19T04:30:31;1;1;
49644;PMS5003;36494;50.730;-1.932;2023-09-19T04:32:57;0;0;
49644;PMS5003;36494;50.730;-1.932;2023-09-19T04:35:22;1;1;
49644;PMS5003;36494;50.730;-1.932;2023-09-19T04:37:47;1;1;
49644;PMS5003;36494;50.730;-1.932;2023-09-19T04:40:13;4;3;
49644;PMS5003;36494;50.730;-1.932;2023-09-19T04:42:39;2;1;
49644;PMS5003;36494;50.730;-1.932;2023-09-19T04:45:04;0;0;
49644;PMS5003;36494;50.730;-1.932;2023-09-19T04:47:29;3;2;
49644;PMS5003;36494;50.730;-1.932;2023-09-19T04:49:54;2;1;
49644;PMS5003;36494;50.730;-1.932;2023-09-19T04:52:19;2;2;
49644;PMS5003;36494;50.730;-1.932;2023-09-19T04:54:44;3;3;
49644;PMS5003;36494;50.730;-1.932;2023-09-19T04:57:10;5;4;
49644;PMS5003;36494;50.730;-1.932;2023-09-19T04:59:36;1;1;
49644;PMS5003;36494;50.730;-1.932;2023-09-19T05:02:01;2;1;
49644;PMS5003;36494;50.730;-1.932;2023-09-19T05:04:27;3;2;
49644;PMS5003;36494;50.730;-1.932;2023-09-19T05:06:52;4;3;
49644;PMS5003;36494;50.730;-1.932;2023-09-19T05:09:18;2;2;
49644;PMS5003;36494;50.730;-1.932;2023-09-19T05:11:43;2;2;
49644;PMS5003;36494;50.730;-1.932;2023-09-19T05:14:08;3;1;
49644;PMS5003;36494;50.730;-1.932;2023-09-19T05:16:34;1;1;
49644;PMS5003;36494;50.730;-1.932;2023-09-19T05:18:59;3;2;
49644;PMS5003;36494;50.730;-1.932;2023-09-19T05:21:24;3;2;
49644;PMS5003;36494;50.730;-1.932;2023-09-19T05:23:51;2;2;
49644;PMS5003;36494;50.730;-1.932;2023-09-19T05:26:15;4;1;
49644;PMS5003;36494;50.730;-1.932;2023-09-19T05:28:40;4;3;
49644;PMS5003;36494;50.730;-1.932;2023-09-19T05:31:05;4;3;
49644;PMS5003;36494;50.730;-1.932;2023-09-19T05:33:31;6;5;
49644;PMS5003;36494;50.730;-1.932;2023-09-19T05:35:57;4;4;
49644;PMS5003;36494;50.730;-1.932;2023-09-19T05:38:22;2;2;
49644;PMS5003;36494;50.730;-1.932;2023-09-19T05:40:48;4;4;
49644;PMS5003;36494;50.730;-1.932;2023-09-19T05:43:13;6;5;
49644;PMS5003;36494;50.730;-1.932;2023-09-19T05:45:39;3;3;
49644;PMS5003;36494;50.730;-1.932;2023-09-19T05:48:08;5;5;
49644;PMS5003;36494;50.730;-1.932;2023-09-19T05:50:29;5;5;
49644;PMS5003;36494;50.730;-1.932;2023-09-19T05:52:55;7;5;
49644;PMS5003;36494;50.730;-1.932;2023-09-19T05:55:20;4;4;
49644;PMS5003;36494;50.730;-1.932;2023-09-19T05:57:49;4;4;
49644;PMS5003;36494;50.730;-1.932;2023-09-19T06:00:13;7;4;
49644;PMS5003;36494;50.730;-1.932;2023-09-19T06:02:37;5;3;
49644;PMS5003;36494;50.730;-1.932;2023-09-19T06:05:03;4;4;
49644;PMS5003;36494;50.730;-1.932;2023-09-19T06:07:29;4;4;
49644;PMS5003;36494;50.730;-1.932;2023-09-19T06:09:55;5;5;
49644;PMS5003;36494;50.730;-1.932;2023-09-19T06:12:20;4;4;
49644;PMS5003;36494;50.730;-1.932;2023-09-19T06:14:45;5;5;
49644;PMS5003;36494;50.730;-1.932;2023-09-19T06:17:11;3;3;
49644;PMS5003;36494;50.730;-1.932;2023-09-19T06:19:37;2;2;
49644;PMS5003;36494;50.730;-1.932;2023-09-19T06:22:02;6;6;
49644;PMS5003;36494;50.730;-1.932;2023-09-19T06:24:28;5;4;
49644;PMS5003;36494;50.730;-1.932;2023-09-19T06:26:52;8;7;
49644;PMS5003;36494;50.730;-1.932;2023-09-19T06:29:18;5;5;
49644;PMS5003;36494;50.730;-1.932;2023-09-19T06:31:44;7;7;
49644;PMS5003;36494;50.730;-1.932;2023-09-19T06:34:09;6;5;
49644;PMS5003;36494;50.730;-1.932;2023-09-19T06:36:35;10;8;
49644;PMS5003;36494;50.730;-1.932;2023-09-19T06:39:00;4;4;
49644;PMS5003;36494;50.730;-1.932;2023-09-19T06:41:26;6;5;
49644;PMS5003;36494;50.730;-1.932;2023-09-19T06:43:51;5;5;
49644;PMS5003;36494;50.730;-1.932;2023-09-19T06:46:17;7;7;
49644;PMS5003;36494;50.730;-1.932;2023-09-19T06:48:43;10;8;
49644;PMS5003;36494;50.730;-1.932;2023-09-19T06:51:08;7;7;
49644;PMS5003;36494;50.730;-1.932;2023-09-19T06:53:34;6;6;
49644;PMS5003;36494;50.730;-1.932;2023-09-19T06:56:00;7;5;
49644;PMS5003;36494;50.730;-1.932;2023-09-19T06:58:25;8;7;
49644;PMS5003;36494;50.730;-1.932;2023-09-19T07:00:51;7;7;
49644;PMS5003;36494;50.730;-1.932;2023-09-19T07:03:16;11;11;
49644;PMS5003;36494;50.730;-1.932;2023-09-19T07:05:41;8;7;
49644;PMS5003;36494;50.730;-1.932;2023-09-19T07:08:07;7;6;
49644;PMS5003;36494;50.730;-1.932;2023-09-19T07:10:33;7;7;
49644;PMS5003;36494;50.730;-1.932;2023-09-19T07:12:58;9;8;
49644;PMS5003;36494;50.730;-1.932;2023-09-19T07:15:24;6;5;
49644;PMS5003;36494;50.730;-1.932;2023-09-19T07:17:50;8;7;
49644;PMS5003;36494;50.730;-1.932;2023-09-19T07:20:15;8;8;
49644;PMS5003;36494;50.730;-1.932;2023-09-19T07:22:41;6;5;
49644;PMS5003;36494;50.730;-1.932;2023-09-19T07:25:06;11;9;
49644;PMS5003;36494;50.730;-1.932;2023-09-19T07:27:31;11;9;
49644;PMS5003;36494;50.730;-1.932;2023-09-19T07:29:57;8;7;
49644;PMS5003;36494;50.730;-1.932;2023-09-19T07:32:22;7;6;
49644;PMS5003;36494;50.730;-1.932;2023-09-19T07:34:48;7;6;
49644;PMS5003;36494;50.730;-1.932;2023-09-19T07:37:14;6;6;
49644;PMS5003;36494;50.730;-1.932;2023-09-19T07:39:39;9;9;
49644;PMS5003;36494;50.730;-1.932;2023-09-19T07:42:04;8;7;
49644;PMS5003;36494;50.730;-1.932;2023-09-19T07:44:29;5;5;
49644;PMS5003;36494;50.730;-1.932;2023-09-19T07:46:55;8;7;
49644;PMS5003;36494;50.730;-1.932;2023-09-19T07:49:20;9;8;
49644;PMS5003;36494;50.730;-1.932;2023-09-19T07:51:45;8;8;
49644;PMS5003;36494;50.730;-1.932;2023-09-19T07:54:11;9;7;
49644;PMS5003;36494;50.730;-1.932;2023-09-19T07:56:36;8;8;
49644;PMS5003;36494;50.730;-1.932;2023-09-19T07:59:02;14;13;
49644;PMS5003;36494;50.730;-1.932;2023-09-19T08:01:27;10;8;
49644;PMS5003;36494;50.730;-1.932;2023-09-19T08:03:53;8;8;
49644;PMS5003;36494;50.730;-1.932;2023-09-19T08:06:18;8;7;
49644;PMS5003;36494;50.730;-1.932;2023-09-19T08:08:44;6;6;
49644;PMS5003;36494;50.730;-1.932;2023-09-19T08:11:09;11;10;
49644;PMS5003;36494;50.730;-1.932;2023-09-19T08:13:34;13;10;
49644;PMS5003;36494;50.730;-1.932;2023-09-19T08:16:00;11;10;
49644;PMS5003;36494;50.730;-1.932;2023-09-19T08:18:25;8;8;
49644;PMS5003;36494;50.730;-1.932;2023-09-19T08:20:51;9;8;
49644;PMS5003;36494;50.730;-1.932;2023-09-19T08:23:16;12;11;
49644;PMS5003;36494;50.730;-1.932;2023-09-19T08:25:42;12;10;
49644;PMS5003;36494;50.730;-1.932;2023-09-19T08:28:07;13;12;
49644;PMS5003;36494;50.730;-1.932;2023-09-19T08:30:33;8;7;
49644;PMS5003;36494;50.730;-1.932;2023-09-19T08:32:58;11;11;
49644;PMS5003;36494;50.730;-1.932;2023-09-19T08:35:24;8;8;
49644;PMS5003;36494;50.730;-1.932;2023-09-19T08:37:50;11;10;
49644;PMS5003;36494;50.730;-1.932;2023-09-19T08:40:15;17;13;
49644;PMS5003;36494;50.730;-1.932;2023-09-19T08:42:48;11;9;
49644;PMS5003;36494;50.730;-1.932;2023-09-19T08:45:05;17;16;
49644;PMS5003;36494;50.730;-1.932;2023-09-19T08:47:33;7;7;
49644;PMS5003;36494;50.730;-1.932;2023-09-19T08:49:58;12;12;
49644;PMS5003;36494;50.730;-1.932;2023-09-19T08:52:22;9;9;
49644;PMS5003;36494;50.730;-1.932;2023-09-19T08:54:47;13;13;
49644;PMS5003;36494;50.730;-1.932;2023-09-19T08:57:13;10;10;
49644;PMS5003;36494;50.730;-1.932;2023-09-19T08:59:38;8;7;
49644;PMS5003;36494;50.730;-1.932;2023-09-19T09:02:03;13;11;
49644;PMS5003;36494;50.730;-1.932;2023-09-19T09:04:29;12;10;
49644;PMS5003;36494;50.730;-1.932;2023-09-19T09:06:55;11;10;
49644;PMS5003;36494;50.730;-1.932;2023-09-19T09:09:20;8;7;
49644;PMS5003;36494;50.730;-1.932;2023-09-19T09:11:45;9;8;
49644;PMS5003;36494;50.730;-1.932;2023-09-19T09:14:11;7;5;
49644;PMS5003;36494;50.730;-1.932;2023-09-19T09:16:37;8;8;
49644;PMS5003;36494;50.730;-1.932;2023-09-19T09:19:02;9;9;
49644;PMS5003;36494;50.730;-1.932;2023-09-19T09:21:28;8;8;
49644;PMS5003;36494;50.730;-1.932;2023-09-19T09:23:54;12;10;
49644;PMS5003;36494;50.730;-1.932;2023-09-19T09:26:24;10;9;
49644;PMS5003;36494;50.730;-1.932;2023-09-19T09:28:45;10;10;
49644;PMS5003;36494;50.730;-1.932;2023-09-19T09:31:12;12;10;
49644;PMS5003;36494;50.730;-1.932;2023-09-19T09:33:35;10;9;
49644;PMS5003;36494;50.730;-1.932;2023-09-19T09:36:02;11;10;
49644;PMS5003;36494;50.730;-1.932;2023-09-19T09:38:27;10;9;
49644;PMS5003;36494;50.730;-1.932;2023-09-19T09:40:53;10;9;
49644;PMS5003;36494;50.730;-1.932;2023-09-19T09:43:25;12;12;
49644;PMS5003;36494;50.730;-1.932;2023-09-19T09:45:43;12;10;
49644;PMS5003;36494;50.730;-1.932;2023-09-19T09:48:09;13;11;
49644;PMS5003;36494;50.730;-1.932;2023-09-19T09:50:35;9;8;
49644;PMS5003;36494;50.730;-1.932;2023-09-19T09:53:00;9;9;
49644;PMS5003;36494;50.730;-1.932;2023-09-19T09:55:25;12;11;
49644;PMS5003;36494;50.730;-1.932;2023-09-19T09:57:52;9;9;
49644;PMS5003;36494;50.730;-1.932;2023-09-19T10:00:16;12;11;
49644;PMS5003;36494;50.730;-1.932;2023-09-19T10:02:42;11;11;
49644;PMS5003;36494;50.730;-1.932;2023-09-19T10:05:11;10;10;
49644;PMS5003;36494;50.730;-1.932;2023-09-19T10:07:33;9;8;
49644;PMS5003;36494;50.730;-1.932;2023-09-19T10:09:59;10;9;
49644;PMS5003;36494;50.730;-1.932;2023-09-19T10:12:23;12;11;
49644;PMS5003;36494;50.730;-1.932;2023-09-19T10:14:49;10;9;
49644;PMS5003;36494;50.730;-1.932;2023-09-19T10:17:14;12;11;
49644;PMS5003;36494;50.730;-1.932;2023-09-19T10:19:41;9;8;
49644;PMS5003;36494;50.730;-1.932;2023-09-19T10:22:05;11;10;
49644;PMS5003;36494;50.730;-1.932;2023-09-19T10:24:31;11;10;
49644;PMS5003;36494;50.730;-1.932;2023-09-19T10:26:56;9;8;
49644;PMS5003;36494;50.730;-1.932;2023-09-19T10:29:21;8;8;
49644;PMS5003;36494;50.730;-1.932;2023-09-19T10:31:47;6;6;
49644;PMS5003;36494;50.730;-1.932;2023-09-19T10:34:13;10;10;
49644;PMS5003;36494;50.730;-1.932;2023-09-19T10:36:38;11;10;
49644;PMS5003;36494;50.730;-1.932;2023-09-19T10:39:04;9;8;
49644;PMS5003;36494;50.730;-1.932;2023-09-19T10:41:29;14;13;
49644;PMS5003;36494;50.730;-1.932;2023-09-19T10:43:54;9;9;
49644;PMS5003;36494;50.730;-1.932;2023-09-19T10:46:20;14;14;
49644;PMS5003;36494;50.730;-1.932;2023-09-19T10:48:46;19;17;
49644;PMS5003;36494;50.730;-1.932;2023-09-19T10:51:12;10;9;
49644;PMS5003;36494;50.730;-1.932;2023-09-19T10:53:41;12;11;
49644;PMS5003;36494;50.730;-1.932;2023-09-19T10:56:02;15;14;
49644;PMS5003;36494;50.730;-1.932;2023-09-19T10:58:27;14;13;
49644;PMS5003;36494;50.730;-1.932;2023-09-19T11:00:53;10;9;
49644;PMS5003;36494;50.730;-1.932;2023-09-19T11:03:18;13;12;
49644;PMS5003;36494;50.730;-1.932;2023-09-19T11:05:43;8;8;
49644;PMS5003;36494;50.730;-1.932;2023-09-19T11:08:09;11;10;
49644;PMS5003;36494;50.730;-1.932;2023-09-19T11:17:51;5;5;
49644;PMS5003;36494;50.730;-1.932;2023-09-19T11:20:21;9;9;
49644;PMS5003;36494;50.730;-1.932;2023-09-19T11:27:33;8;8;
49644;PMS5003;36494;50.730;-1.932;2023-09-19T11:34:51;9;9;
49644;PMS5003;36494;50.730;-1.932;2023-09-19T11:39:43;8;7;
49644;PMS5003;36494;50.730;-1.932;2023-09-19T11:44:34;7;6;
49644;PMS5003;36494;50.730;-1.932;2023-09-19T11:46:59;9;8;
49644;PMS5003;36494;50.730;-1.932;2023-09-19T11:49:26;11;11;
49644;PMS5003;36494;50.730;-1.932;2023-09-19T11:51:50;7;7;
49644;PMS5003;36494;50.730;-1.932;2023-09-19T11:54:16;6;6;
49644;PMS5003;36494;50.730;-1.932;2023-09-19T11:56:41;6;6;
49644;PMS5003;36494;50.730;-1.932;2023-09-19T11:59:07;8;8;
49644;PMS5003;36494;50.730;-1.932;2023-09-19T12:01:33;10;10;
49644;PMS5003;36494;50.730;-1.932;2023-09-19T12:03:59;7;7;
49644;PMS5003;36494;50.730;-1.932;2023-09-19T12:06:24;6;5;
49644;PMS5003;36494;50.730;-1.932;2023-09-19T12:08:49;4;4;
49644;PMS5003;36494;50.730;-1.932;2023-09-19T12:11:15;6;5;
49644;PMS5003;36494;50.730;-1.932;2023-09-19T12:13:41;8;7;
49644;PMS5003;36494;50.730;-1.932;2023-09-19T12:18:30;8;7;
49644;PMS5003;36494;50.730;-1.932;2023-09-19T12:20:56;6;6;
49644;PMS5003;36494;50.730;-1.932;2023-09-19T12:23:21;9;8;
49644;PMS5003;36494;50.730;-1.932;2023-09-19T12:25:47;6;6;
49644;PMS5003;36494;50.730;-1.932;2023-09-19T12:28:12;6;6;
49644;PMS5003;36494;50.730;-1.932;2023-09-19T12:30:37;5;5;
49644;PMS5003;36494;50.730;-1.932;2023-09-19T12:33:03;8;6;
49644;PMS5003;36494;50.730;-1.932;2023-09-19T12:35:28;8;8;
49644;PMS5003;36494;50.730;-1.932;2023-09-19T12:37:53;5;5;
49644;PMS5003;36494;50.730;-1.932;2023-09-19T12:40:20;7;7;
49644;PMS5003;36494;50.730;-1.932;2023-09-19T12:42:45;9;7;
49644;PMS5003;36494;50.730;-1.932;2023-09-19T12:45:10;7;7;
49644;PMS5003;36494;50.730;-1.932;2023-09-19T12:47:36;6;4;
49644;PMS5003;36494;50.730;-1.932;2023-09-19T12:50:07;8;8;
49644;PMS5003;36494;50.730;-1.932;2023-09-19T12:52:31;6;6;
49644;PMS5003;36494;50.730;-1.932;2023-09-19T12:54:52;10;8;
49644;PMS5003;36494;50.730;-1.932;2023-09-19T12:59:43;5;4;
49644;PMS5003;36494;50.730;-1.932;2023-09-19T13:02:08;5;3;
49644;PMS5003;36494;50.730;-1.932;2023-09-19T13:04:34;10;8;
49644;PMS5003;36494;50.730;-1.932;2023-09-19T13:06:59;6;5;
49644;PMS5003;36494;50.730;-1.932;2023-09-19T13:09:24;9;8;
49644;PMS5003;36494;50.730;-1.932;2023-09-19T13:11:50;9;8;
49644;PMS5003;36494;50.730;-1.932;2023-09-19T13:14:16;8;8;
49644;PMS5003;36494;50.730;-1.932;2023-09-19T13:19:06;8;8;
49644;PMS5003;36494;50.730;-1.932;2023-09-19T13:21:32;11;11;
49644;PMS5003;36494;50.730;-1.932;2023-09-19T13:26:23;12;11;
49644;PMS5003;36494;50.730;-1.932;2023-09-19T13:28:49;6;5;
49644;PMS5003;36494;50.730;-1.932;2023-09-19T13:31:14;9;8;
49644;PMS5003;36494;50.730;-1.932;2023-09-19T13:33:42;11;11;
49644;PMS5003;36494;50.730;-1.932;2023-09-19T13:36:05;12;11;
49644;PMS5003;36494;50.730;-1.932;2023-09-19T13:38:30;7;7;
49644;PMS5003;36494;50.730;-1.932;2023-09-19T13:40:56;8;8;
49644;PMS5003;36494;50.730;-1.932;2023-09-19T13:43:21;10;10;
49644;PMS5003;36494;50.730;-1.932;2023-09-19T13:45:47;13;12;
49644;PMS5003;36494;50.730;-1.932;2023-09-19T13:48:12;14;11;
49644;PMS5003;36494;50.730;-1.932;2023-09-19T13:50:38;9;9;
49644;PMS5003;36494;50.730;-1.932;2023-09-19T13:53:03;12;9;
49644;PMS5003;36494;50.730;-1.932;2023-09-19T13:55:29;11;10;
49644;PMS5003;36494;50.730;-1.932;2023-09-19T13:57:54;6;5;
49644;PMS5003;36494;50.730;-1.932;2023-09-19T14:00:20;8;8;
49644;PMS5003;36494;50.730;-1.932;2023-09-19T14:02:45;12;9;
49644;PMS5003;36494;50.730;-1.932;2023-09-19T14:05:11;8;8;
49644;PMS5003;36494;50.730;-1.932;2023-09-19T14:07:37;9;8;
49644;PMS5003;36494;50.730;-1.932;2023-09-19T14:10:02;6;6;
49644;PMS5003;36494;50.730;-1.932;2023-09-19T14:12:28;13;12;
49644;PMS5003;36494;50.730;-1.932;2023-09-19T14:14:54;10;8;
49644;PMS5003;36494;50.730;-1.932;2023-09-19T14:17:20;6;6;
49644;PMS5003;36494;50.730;-1.932;2023-09-19T14:19:45;10;9;
49644;PMS5003;36494;50.730;-1.932;2023-09-19T14:22:10;15;12;
49644;PMS5003;36494;50.730;-1.932;2023-09-19T14:24:36;8;8;
49644;PMS5003;36494;50.730;-1.932;2023-09-19T14:27:01;7;7;
49644;PMS5003;36494;50.730;-1.932;2023-09-19T14:29:27;10;10;
49644;PMS5003;36494;50.730;-1.932;2023-09-19T14:31:52;7;7;
49644;PMS5003;36494;50.730;-1.932;2023-09-19T14:34:18;10;9;
49644;PMS5003;36494;50.730;-1.932;2023-09-19T14:36:44;11;8;
49644;PMS5003;36494;50.730;-1.932;2023-09-19T14:39:09;12;10;
49644;PMS5003;36494;50.730;-1.932;2023-09-19T14:41:35;13;11;
49644;PMS5003;36494;50.730;-1.932;2023-09-19T14:44:01;10;9;
49644;PMS5003;36494;50.730;-1.932;2023-09-19T14:46:25;8;8;
49644;PMS5003;36494;50.730;-1.932;2023-09-19T14:48:51;10;9;
49644;PMS5003;36494;50.730;-1.932;2023-09-19T14:51:16;11;7;
49644;PMS5003;36494;50.730;-1.932;2023-09-19T14:53:42;12;11;
49644;PMS5003;36494;50.730;-1.932;2023-09-19T14:56:08;7;6;
49644;PMS5003;36494;50.730;-1.932;2023-09-19T14:58:33;8;8;
49644;PMS5003;36494;50.730;-1.932;2023-09-19T15:01:02;9;8;
49644;PMS5003;36494;50.730;-1.932;2023-09-19T15:03:23;7;6;
49644;PMS5003;36494;50.730;-1.932;2023-09-19T15:05:49;10;9;
49644;PMS5003;36494;50.730;-1.932;2023-09-19T15:08:15;8;7;
49644;PMS5003;36494;50.730;-1.932;2023-09-19T15:10:40;8;8;
49644;PMS5003;36494;50.730;-1.932;2023-09-19T15:13:06;10;9;
49644;PMS5003;36494;50.730;-1.932;2023-09-19T15:15:31;9;7;
49644;PMS5003;36494;50.730;-1.932;2023-09-19T15:17:57;10;9;
49644;PMS5003;36494;50.730;-1.932;2023-09-19T15:20:23;12;11;
49644;PMS5003;36494;50.730;-1.932;2023-09-19T15:22:47;5;5;
49644;PMS5003;36494;50.730;-1.932;2023-09-19T15:25:13;8;5;
49644;PMS5003;36494;50.730;-1.932;2023-09-19T15:27:39;11;9;
49644;PMS5003;36494;50.730;-1.932;2023-09-19T15:30:05;11;10;
49644;PMS5003;36494;50.730;-1.932;2023-09-19T15:32:30;9;9;
49644;PMS5003;36494;50.730;-1.932;2023-09-19T15:34:56;6;5;
49644;PMS5003;36494;50.730;-1.932;2023-09-19T15:37:21;7;7;
49644;PMS5003;36494;50.730;-1.932;2023-09-19T15:39:47;8;7;
49644;PMS5003;36494;50.730;-1.932;2023-09-19T15:42:13;9;7;
49644;PMS5003;36494;50.730;-1.932;2023-09-19T15:44:39;8;7;
49644;PMS5003;36494;50.730;-1.932;2023-09-19T15:47:04;7;7;
49644;PMS5003;36494;50.730;-1.932;2023-09-19T15:49:30;7;7;
49644;PMS5003;36494;50.730;-1.932;2023-09-19T15:51:55;7;6;
49644;PMS5003;36494;50.730;-1.932;2023-09-19T15:54:20;5;5;
49644;PMS5003;36494;50.730;-1.932;2023-09-19T15:56:46;8;6;
49644;PMS5003;36494;50.730;-1.932;2023-09-19T15:59:11;10;8;
49644;PMS5003;36494;50.730;-1.932;2023-09-19T16:01:37;7;6;
49644;PMS5003;36494;50.730;-1.932;2023-09-19T16:04:02;7;7;
49644;PMS5003;36494;50.730;-1.932;2023-09-19T16:06:28;6;6;
49644;PMS5003;36494;50.730;-1.932;2023-09-19T16:08:54;6;6;
49644;PMS5003;36494;50.730;-1.932;2023-09-19T16:11:18;10;9;
49644;PMS5003;36494;50.730;-1.932;2023-09-19T16:13:44;8;7;
49644;PMS5003;36494;50.730;-1.932;2023-09-19T16:16:10;7;7;
49644;PMS5003;36494;50.730;-1.932;2023-09-19T16:18:35;8;8;
49644;PMS5003;36494;50.730;-1.932;2023-09-19T16:21:01;9;8;
49644;PMS5003;36494;50.730;-1.932;2023-09-19T16:23:26;6;6;
49644;PMS5003;36494;50.730;-1.932;2023-09-19T16:28:16;9;9;
49644;PMS5003;36494;50.730;-1.932;2023-09-19T16:30:42;11;9;
49644;PMS5003;36494;50.730;-1.932;2023-09-19T16:33:07;6;6;
49644;PMS5003;36494;50.730;-1.932;2023-09-19T16:35:36;11;11;
49644;PMS5003;36494;50.730;-1.932;2023-09-19T16:37:58;11;9;
49644;PMS5003;36494;50.730;-1.932;2023-09-19T16:40:24;8;7;
49644;PMS5003;36494;50.730;-1.932;2023-09-19T16:42:49;9;8;
49644;PMS5003;36494;50.730;-1.932;2023-09-19T16:45:15;9;8;
49644;PMS5003;36494;50.730;-1.932;2023-09-19T16:47:40;10;9;
49644;PMS5003;36494;50.730;-1.932;2023-09-19T16:50:06;9;7;
49644;PMS5003;36494;50.730;-1.932;2023-09-19T16:52:31;12;10;